Lyons, Georgia
Current Conditions -  °F | °C
As of 1:55 AM on Monday 24 Nov 2014 (Local Time) from KVDI Reporting Station
Overcast Overcast  
Wind Chill: 64°   Ceiling: 700
Heat Index: 64°   Visibility: 10mi
Dew Point: 64°   Wind: 5mph
Humidity: 100%   Direction: 220°SW
Pressure: 29.83"   Gusts: NA
Location:  32.2°N, 82.32°W
Report Text: KVDI 240655Z AUTO 22004KT 10SM OVC007 18/18 A2983 RMK AO2
Loading
Personal Weather Stations






























Interactive Weather Map New forecast layout! Learn more

10-Day Weather Forecast

Advertisements
Track Severe Weather on mobile